METAR Data
IDs: Format: Raw Decoded Include TAF

Data at: 0113 UTC 25 Mar 2019

KBNW 250055Z AUTO 03010KT 5SM BR OVC005 07/07 A3008 RMK AO2
KBNW 250035Z AUTO 03011KT 3SM BR OVC004 07/07 A3007 RMK AO2
KBNW 250015Z AUTO 02010KT 2SM -RA OVC004 07/07 A3007 RMK AO2
KBNW 242355Z AUTO 02010KT 4SM BR OVC006 07/07 A3006 RMK AO2
KBNW 242335Z AUTO 03009KT 6SM BR OVC007 07/07 A3005 RMK AO2
KBNW 242315Z AUTO 03010KT 5SM BR OVC006 07/07 A3005 RMK AO2
KBNW 242255Z AUTO 03010KT 4SM BR OVC005 07/07 A3004 RMK AO2
KBNW 242235Z AUTO 03010KT 4SM BR OVC004 07/07 A3004 RMK AO2
KBNW 242215Z AUTO 04010KT 3SM BR OVC004 07/07 A3003 RMK AO2
KBNW 242155Z AUTO 04013KT 2SM BR OVC003 07/07 A3002 RMK AO2
KBNW 242135Z AUTO 04011KT 1SM BR OVC003 07/07 A3002 RMK AO2
KBNW 242115Z AUTO 03012KT 1 1/2SM BR OVC003 07/07 A3002 RMK AO2
KBNW 242055Z AUTO 03013KT 4SM BR OVC004 07/07 A3002 RMK AO2
KBNW 242035Z AUTO 03010KT 4SM BR OVC004 08/08 A3001 RMK AO2
KBNW 242015Z AUTO 02009KT 2 1/2SM BR OVC004 08/08 A3000 RMK AO2
KBNW 241955Z AUTO 03009KT 2SM BR OVC003 08/08 A2999 RMK AO2
KBNW 241935Z AUTO 04009KT 1 1/2SM BR OVC003 08/08 A2999 RMK AO2
KBNW 241915Z AUTO 05009KT 3/4SM BR OVC003 07/07 A2999 RMK AO2
KBNW 241855Z AUTO 04010KT 3/4SM BR OVC003 07/07 A2999 RMK AO2
KBNW 241835Z AUTO 04009KT 1 1/2SM BR OVC003 07/07 A3000 RMK AO2
KBNW 241815Z AUTO 06007KT 1 1/2SM BR OVC003 07/07 A3000 RMK AO2
KBNW 241755Z AUTO 07006KT 1 1/2SM BR OVC003 07/07 A3000 RMK AO2
KBNW 241735Z AUTO 05007KT 1 1/4SM BR OVC003 07/07 A3000 RMK AO2
KBNW 241715Z AUTO 05008KT 3/4SM BR OVC003 07/07 A3000 RMK AO2
KBNW 241655Z AUTO 08008KT 1/2SM BR OVC003 07/07 A3000 RMK AO2
KBNW 241635Z AUTO 07008KT 1/4SM FG OVC003 07/07 A3000 RMK AO2
KBNW 241615Z AUTO 08007KT 1/4SM FG OVC003 06/06 A3000 RMK AO2
KBNW 241555Z AUTO 07007KT 1/4SM FG OVC003 06/06 A3000 RMK AO2
KBNW 241535Z AUTO 08009KT 1/4SM FG OVC003 06/06 A3000 RMK AO2
KBNW 241515Z AUTO 07009KT 1/4SM -UP OVC002 05/05 A2999 RMK AO2
KBNW 241455Z AUTO 07007KT 1/4SM FG OVC002 05/05 A3000 RMK AO2
KBNW 241435Z AUTO 06008KT 1/4SM FG OVC002 05/05 A3000 RMK AO2
KBNW 241415Z AUTO 06008KT M1/4SM FG OVC002 05/05 A3000 RMK AO2
KBNW 241355Z AUTO 06007KT M1/4SM FG OVC002 05/05 A2999 RMK AO2
KBNW 241335Z AUTO 07006KT M1/4SM FG OVC002 05/05 A2999 RMK AO2
KBNW 241315Z AUTO 08006KT M1/4SM FG OVC002 05/05 A2999 RMK AO2
KBNW 241255Z AUTO 08007KT 1/4SM FG OVC002 05/05 A2998 RMK AO2 P0002
KBNW 241235Z AUTO 08006KT 1/2SM -RA OVC002 05/05 A2998 RMK AO2
KBNW 241215Z AUTO 10007KT 2SM -RA OVC003 05/05 A2998 RMK AO2
KBNW 241155Z AUTO 11006KT 1 3/4SM +UP OVC003 05/05 A2998 RMK AO2 P0003
KBNW 241135Z AUTO 11006KT 2SM -UP OVC005 05/05 A2998 RMK AO2
KBNW 241115Z AUTO 10007KT 2 1/2SM BR BKN006 OVC010 06/05 A2998 RMK AO2
KBNW 241055Z AUTO 10007KT 5SM BR BKN010 OVC015 06/06 A2999 RMK AO2
KBNW 241035Z AUTO 10006KT 8SM OVC016 06/06 A2998 RMK AO2
KBNW 241015Z AUTO 10006KT 8SM OVC018 06/06 A2998 RMK AO2
KBNW 240955Z AUTO 11007KT 10SM OVC019 06/06 A2998 RMK AO2
KBNW 240935Z AUTO 10006KT 10SM OVC020 06/06 A2998 RMK AO2
KBNW 240915Z AUTO 11007KT 10SM OVC020 06/06 A2999 RMK AO2
KBNW 240855Z AUTO 12006KT 10SM OVC021 06/06 A2999 RMK AO2
KBNW 240835Z AUTO 12007KT 10SM OVC021 06/06 A3000 RMK AO2
KBNW 240815Z AUTO 13008KT 10SM OVC020 06/06 A3001 RMK AO2
KBNW 240755Z AUTO 13007KT 10SM BKN015 OVC020 06/06 A3001 RMK AO2
KBNW 240735Z AUTO 13008KT 10SM BKN014 OVC028 06/06 A3002 RMK AO2
KBNW 240715Z AUTO 13011KT 10SM OVC030 06/06 A3002 RMK AO2
KBNW 240655Z AUTO 14011KT 10SM OVC032 06/06 A3002 RMK AO2
KBNW 240635Z AUTO 14011KT 10SM OVC035 06/06 A3002 RMK AO2
KBNW 240615Z AUTO 14011KT 10SM BKN030 OVC039 06/06 A3002 RMK AO2
KBNW 240555Z AUTO 13011KT 10SM OVC030 06/06 A3002 RMK AO2
KBNW 240535Z AUTO 13011KT 10SM OVC031 07/06 A3003 RMK AO2
KBNW 240515Z AUTO 13011KT 10SM OVC034 07/06 A3003 RMK AO2
KBNW 240455Z AUTO 12010KT 10SM BKN038 OVC043 07/06 A3004 RMK AO2
KBNW 240435Z AUTO 12009KT 10SM OVC042 07/06 A3005 RMK AO2
KBNW 240415Z AUTO 11012KT 10SM OVC046 07/05 A3005 RMK AO2
KBNW 240355Z AUTO 11010KT 10SM BKN041 OVC048 07/06 A3006 RMK AO2
KBNW 240335Z AUTO 11009KT 10SM BKN040 OVC048 07/06 A3006 RMK AO2
KBNW 240315Z AUTO 11010KT 10SM FEW026 BKN049 OVC055 07/06 A3006 RMK AO2
KBNW 240255Z AUTO 11008KT 10SM FEW025 OVC055 07/06 A3007 RMK AO2
KBNW 240235Z AUTO 11007KT 10SM FEW033 FEW039 OVC055 06/06 A3007 RMK AO2
KBNW 240215Z AUTO 13007KT 8SM FEW030 SCT039 BKN060 07/06 A3007 RMK AO2
KBNW 240155Z AUTO 12007KT 10SM OVC070 08/05 A3007 RMK AO2
KBNW 240135Z AUTO 11007KT 10SM OVC075 08/05 A3007 RMK AO2
KBNW 240115Z AUTO 11009KT 10SM OVC080 08/04 A3007 RMK AO2
KBNW 240055Z AUTO 11008KT 10SM BKN080 OVC085 08/04 A3007 RMK AO2
KBNW 240035Z AUTO 12009KT OVC080 08/04 A3008 RMK AO2
KBNW 240015Z AUTO 11010KT 10SM OVC080 09/04 A3008 RMK AO2
KBNW 232355Z AUTO 11011KT 10SM FEW075 OVC090 09/04 A3007 RMK AO2
KBNW 232335Z AUTO 11009KT 10SM SCT075 OVC090 09/05 A3007 RMK AO2
KBNW 232315Z AUTO 10009KT 10SM BKN080 OVC090 09/04 A3007 RMK AO2
KBNW 232255Z AUTO 11010KT 10SM FEW050 FEW065 BKN090 10/04 A3008 RMK AO2
KBNW 232235Z AUTO 12009KT 10SM SCT070 BKN100 10/04 A3009 RMK AO2
KBNW 232215Z AUTO 11010KT 10SM FEW050 SCT065 BKN100 10/04 A3009 RMK AO2
KBNW 232155Z AUTO 10008KT 9SM FEW041 BKN055 OVC065 10/05 A3009 RMK AO2
KBNW 232135Z AUTO 10009KT 10SM FEW055 BKN065 OVC075 10/04 A3010 RMK AO2
KBNW 232115Z AUTO 11009KT 10SM SCT060 BKN065 OVC075 10/03 A3010 RMK AO2
KBNW 232055Z AUTO 11008KT 10SM SCT065 BKN080 OVC100 10/04 A3011 RMK AO2
KBNW 232035Z AUTO 12008KT 10SM BKN095 10/03 A3012 RMK AO2
KBNW 232015Z AUTO 12012KT 10SM FEW100 10/03 A3012 RMK AO2
KBNW 231955Z AUTO 13011KT 10SM CLR 11/03 A3012 RMK AO2
KBNW 231935Z AUTO 12012KT 10SM FEW090 FEW120 11/03 A3013 RMK AO2
KBNW 231915Z AUTO 14009KT 10SM FEW090 SCT120 11/03 A3014 RMK AO2
KBNW 231855Z AUTO 16013KT 10SM CLR 11/03 A3016 RMK AO2
KBNW 231835Z AUTO 16012KT 10SM CLR 11/03 A3016 RMK AO2
KBNW 231815Z AUTO 15010KT 10SM CLR 11/02 A3016 RMK AO2
KBNW 231755Z AUTO 15010G18KT 10SM CLR 11/02 A3016 RMK AO2
KBNW 231735Z AUTO 15012KT 10SM CLR 11/02 A3017 RMK AO2
KBNW 231715Z AUTO 16011KT 10SM CLR 11/03 A3017 RMK AO2
KBNW 231655Z AUTO 15011KT 10SM CLR 10/03 A3018 RMK AO2
KBNW 231635Z AUTO 17010KT 10SM CLR 09/03 A3018 RMK AO2
KBNW 231615Z AUTO 15010KT 10SM CLR 09/04 A3018 RMK AO2
KBNW 231555Z AUTO 15010KT 10SM CLR 08/04 A3019 RMK AO2
KBNW 231535Z AUTO 14010KT 10SM CLR 07/03 A3020 RMK AO2
KBNW 231515Z AUTO 12008KT 10SM CLR 06/03 A3019 RMK AO2
KBNW 231455Z AUTO 12009KT 10SM CLR 05/03 A3020 RMK AO2
KBNW 231435Z AUTO 12009KT 10SM CLR 04/02 A3020 RMK AO2
KBNW 231415Z AUTO 13007KT 10SM CLR 03/02 A3021 RMK AO2
KBNW 231355Z AUTO 12007KT 10SM CLR 02/02 A3020 RMK AO2
KBNW 231335Z AUTO 12006KT 10SM CLR 02/01 A3021 RMK AO2
KBNW 231315Z AUTO 11006KT 10SM CLR 01/01 A3021 RMK AO2